Cenk Y — TCZV7 — position and weather

sailwx.info

Track history (hours):
 
Tides and Currents Weather Stations Pressure Air Temp Water Temp Dewpoint Dewpoint Depression Visibility Wind Speed Wind Dir Waves Ship Positions

Cenk Y

Last reported at 2016-Aug-24 18:17 UTC. Time now 2016-Aug-27 02:54 UTC.
Position N 29°12' E 032°44'.

Length 150 m; draft 5.4 m.

Type: Ship. MMSI: 271042575.

Date/timePositionNaut miles runAvg speedWind from/ knotsBaromVisibWave heightAir tempDewpointWater temp
2016-Aug-24 18:17N 29°12' E 032°44'304 6.5
2016-Aug-22 19:19N 34°07' E 034°07'911.6
2016-Aug-22 18:33N 34°15' E 034°12'2611.6
2016-Aug-22 16:17N 34°37' E 034°29'912.0
2016-Aug-22 15:33N 34°45' E 034°35'1212.1
2016-Aug-22 14:33N 34°55' E 034°42'2 0.0
2016-Aug-20 14:06N 34°54' E 034°44'5 9.2
2016-Aug-20 13:33N 34°50' E 034°41'10 9.2
2016-Aug-20 12:30N 34°41' E 034°36'9 9.2
2016-Aug-20 11:32N 34°34' E 034°29'9 9.4
2016-Aug-20 10:32N 34°27' E 034°21'10 9.5
2016-Aug-20 09:31N 34°20' E 034°14'1010.1
2016-Aug-20 08:33N 34°13' E 034°06'1110.6
2016-Aug-20 07:34N 34°05' E 033°58'1010.2
2016-Aug-20 06:32N 33°57' E 033°49'2211.0
2016-Aug-20 04:32N 33°40' E 033°32'1212.3
2016-Aug-20 03:31N 33°31' E 033°22'1512.7
2016-Aug-20 02:21N 33°19' E 033°11'2212.3
2016-Aug-20 00:32N 32°59' E 032°59'1212.5
2016-Aug-19 23:33N 32°48' E 032°54'5012.5
2016-Aug-19 19:33N 32°02' E 032°32'1412.2
2016-Aug-19 18:25N 31°49' E 032°25'1011.7
2016-Aug-19 17:33N 31°39' E 032°24'1212.0
2016-Aug-19 16:32N 31°27' E 032°25'1211.3
2016-Aug-19 15:29N 31°15' E 032°21'9 8.8
2016-Aug-19 14:30N 31°07' E 032°19'  
Track history (hours):
 
Tides and Currents Weather Stations Pressure Air Temp Water Temp Dewpoint Dewpoint Depression Visibility Wind Speed Wind Dir Waves Ship Positions

Cenk Y

Last reported at 2016-Aug-24 18:17 UTC. Time now 2016-Aug-27 02:54 UTC.
Position N 29°12' E 032°44'.

Length 150 m; draft 5.4 m.

Type: Ship. MMSI: 271042575.

Date/timePositionNaut miles runAvg speedWind from/ knotsBaromVisibWave heightAir tempDewpointWater temp
2016-Aug-24 18:17N 29°12' E 032°44'304 6.5
2016-Aug-22 19:19N 34°07' E 034°07'911.6
2016-Aug-22 18:33N 34°15' E 034°12'2611.6
2016-Aug-22 16:17N 34°37' E 034°29'912.0
2016-Aug-22 15:33N 34°45' E 034°35'1212.1
2016-Aug-22 14:33N 34°55' E 034°42'2 0.0
2016-Aug-20 14:06N 34°54' E 034°44'5 9.2
2016-Aug-20 13:33N 34°50' E 034°41'10 9.2
2016-Aug-20 12:30N 34°41' E 034°36'9 9.2
2016-Aug-20 11:32N 34°34' E 034°29'9 9.4
2016-Aug-20 10:32N 34°27' E 034°21'10 9.5
2016-Aug-20 09:31N 34°20' E 034°14'1010.1
2016-Aug-20 08:33N 34°13' E 034°06'1110.6
2016-Aug-20 07:34N 34°05' E 033°58'1010.2
2016-Aug-20 06:32N 33°57' E 033°49'2211.0
2016-Aug-20 04:32N 33°40' E 033°32'1212.3
2016-Aug-20 03:31N 33°31' E 033°22'1512.7
2016-Aug-20 02:21N 33°19' E 033°11'2212.3
2016-Aug-20 00:32N 32°59' E 032°59'1212.5
2016-Aug-19 23:33N 32°48' E 032°54'5012.5
2016-Aug-19 19:33N 32°02' E 032°32'1412.2
2016-Aug-19 18:25N 31°49' E 032°25'1011.7
2016-Aug-19 17:33N 31°39' E 032°24'1212.0
2016-Aug-19 16:32N 31°27' E 032°25'1211.3
2016-Aug-19 15:29N 31°15' E 032°21'9 8.8
2016-Aug-19 14:30N 31°07' E 032°19'  

Dump ship's entire track history